(°C)
-5°
-5°
-5°
-4°
-4°
-3°
-2°
(°C)
-10°
-10°
-10°
-9°
-9°
-8°
-8°
ССЗ
ССЗ
ССЗ
ССЗ
ССЗ
ССЗ
ССЗ
(km/h)
10-17
9-16
8-15
7-14
9-16
10-18
12-20
(mm)
0
0
0
0
0
0
0
(%)
1
1
0
0
0
0
0

Издигане на слънцето

/ -29.5°
sun-icon
UV 2
07:14
17:15
Намаляващ полумесец (282°)
01:26
11:53

METAR за Wilmington Manor (KILG)

Час Условия Температура/
Точка на оросяване
Вятър Видимост Времето Облаци Налягане Промяна Сурови
VFR -5°C / °C 320º 9kt >10km - Clear 1025 - KILG 260851Z AUTO 32009KT 10SM CLR M05/M14 A3028 RMK AO2 SLP254 T10501139 51020 $
VFR -4.4°C / °C 330º 10kt >10km - Clear 1024 - KILG 260751Z AUTO 33010KT 10SM CLR M04/M14 A3027 RMK AO2 SLP249 T10441139 $
VFR -3.3°C / °C 340º 14kt >10km - Few Clouds 7000ft 1024 - KILG 260651Z AUTO 34014KT 10SM FEW070 M03/M13 A3024 RMK AO2 SLP241 T10331128 $
VFR -2.2°C / °C 320º 10kt >10km - Overcast 7000ft 1023 - KILG 260551Z AUTO 32010KT 10SM OVC070 M02/M12 A3022 RMK AO2 SLP234 T10221122 10006 21022 53013 $
VFR -1.7°C / °C 330º 11kt >10km - Overcast 7000ft 1022 - KILG 260451Z AUTO 33011KT 10SM OVC070 M02/M11 A3020 RMK AO2 SLP226 T10171111 400831017 $
VFR -1.1°C / °C 310º 10kt >10km - Overcast 7000ft 1022 - KILG 260351Z AUTO 31010KT 10SM OVC070 M01/M10 A3020 RMK AO2 SLP226 T10111100 $
VFR -0.6°C / °C 320º 12kt >10km - Overcast 7000ft 1022 - KILG 260251Z AUTO 32012KT 10SM OVC070 M01/M10 A3018 RMK AO2 SLP221 T10061100 51018 $
VFR -1.7°C / -9.4°C 320º 7kt >10km - Broken Clouds 6500ft 1021 - KILG 260151Z AUTO 32007KT 10SM BKN065 M02/M09 A3017 RMK AO2 SLP216 T10171094 $
VFR -1.1°C / -9.4°C 310º 8kt >10km - Clear 1021 - KILG 260051Z 31008KT 10SM CLR M01/M09 A3015 RMK AO2 SLP210 T10111094 $
VFR 0°C / -8.3°C 320º 8kt >10km - Scattered Clouds 6000ft 1020 - KILG 252351Z 32008KT 10SM SCT060 00/M08 A3013 RMK AO2 SLP203 T00001083 10083 20000 53034 $
VFR 1.7°C / -7.2°C 320º 13kt >10km - Clear 1018 - KILG 252251Z 32013KT 10SM CLR 02/M07 A3009 RMK AO2 SLP189 T00171072 $
VFR 3.3°C / -6.1°C 320º 12kt >10km - Clear 1017 - KILG 252151Z 32012KT 10SM CLR 03/M06 A3006 RMK AO2 SLP178 T00331061
VFR 5°C / -5°C 300º 13kt Gust 22kt >10km - Broken Clouds 5500ft 1016 - KILG 252051Z 30013G22KT 10SM BKN055 05/M05 A3003 RMK AO2 SLP169 T00501050 53016 $
VFR 6.1°C / -3.3°C 310º 15kt >10km - Scattered Clouds 6000ft 1015 - KILG 251951Z 31015KT 10SM SCT060 06/M03 A3000 RMK AO2 SLP159 T00611033 $
7.8°C / -1.7°C 330º 11kt - Scattered Clouds 6000ft 1015 - KILG 251851Z 33011KT SCT060 08/M02 A2998 RMK AO2 SLP150 T00781017 $
VFR 6.1°C / -1.7°C 330º 9kt >10km - Overcast 5000ft 1015 - KILG 251751Z 33009KT 10SM OVC050 06/M02 A2998 RMK AO2 SLP152 T00611017 10061 21006 50002 $
VFR 5.6°C / -1.7°C 350º 7kt >10km - Few Clouds 5000ft
Broken Clouds 6500ft
Overcast 8500ft
1015 - KILG 251651Z AUTO 35007KT 10SM FEW050 BKN065 OVC085 06/M02 A2999 RMK AO2 SLP154 T00561017 $
VFR 3.9°C / -1.7°C 350º 3kt >10km - Overcast 6000ft 1015 - KILG 251551Z AUTO 35003KT 10SM OVC060 04/M02 A2999 RMK AO2 SLP156 T00391017 $
VFR 2.8°C / -1.7°C 320º 4kt >10km - Overcast 6000ft 1015 - KILG 251451Z AUTO 32004KT 9SM OVC060 03/M02 A2997 RMK AO2 SLP151 T00281017 51033
VFR 1.7°C / -1.7°C 330º 3kt >10km - Broken Clouds 6000ft
Overcast 7500ft
1014 - KILG 251351Z AUTO 33003KT 7SM BKN060 OVC075 02/M02 A2995 RMK AO2 SLP144 T00171017
VFR 0.6°C / -2.2°C variable 0kt >10km - Few Clouds 10000ft 1012 - KILG 251251Z AUTO 00000KT 7SM FEW100 01/M02 A2990 RMK AO2 SLP126 T00061022 $
VFR -0.6°C / -2.8°C variable 0kt >10km - Scattered Clouds 5500ft 1011 - KILG 251151Z AUTO 00000KT 8SM SCT055 M01/M03 A2988 RMK AO2 SLP118 T10061028 10017 21006 53014 $
VFR 0.6°C / -2.2°C 190º 3kt 9700m Haze Vertical Visibility of 0ft. 1010 - KILG 251051Z AUTO 19003KT 6SM HZ CLR 01/M02 A2985 RMK AO2 SLP108 T00061022 $
VFR 0.6°C / -2.2°C variable 0kt >10km - Few Clouds 5500ft
Scattered Clouds 8000ft
1010 - KILG 250951Z AUTO 00000KT 9SM FEW055 SCT080 01/M02 A2984 RMK AO2 SLP105 T00061022 $

VFR

-5°C / °C

[Още]
Вятър 320º 9kt
Видимост >10km
Времето -
Облаци Clear
Налягане 1025
Промяна -
Сурови KILG 260851Z AUTO 32009KT 10SM CLR M05/M14 A3028 RMK AO2 SLP254 T10501139 51020 $

VFR

-4.4°C / °C

[Още]
Вятър 330º 10kt
Видимост >10km
Времето -
Облаци Clear
Налягане 1024
Промяна -
Сурови KILG 260751Z AUTO 33010KT 10SM CLR M04/M14 A3027 RMK AO2 SLP249 T10441139 $

VFR

-3.3°C / °C

[Още]
Вятър 340º 14kt
Видимост >10km
Времето -
Облаци Few Clouds 7000ft
Налягане 1024
Промяна -
Сурови KILG 260651Z AUTO 34014KT 10SM FEW070 M03/M13 A3024 RMK AO2 SLP241 T10331128 $

VFR

-2.2°C / °C

[Още]
Вятър 320º 10kt
Видимост >10km
Времето -
Облаци Overcast 7000ft
Налягане 1023
Промяна -
Сурови KILG 260551Z AUTO 32010KT 10SM OVC070 M02/M12 A3022 RMK AO2 SLP234 T10221122 10006 21022 53013 $

VFR

-1.7°C / °C

[Още]
Вятър 330º 11kt
Видимост >10km
Времето -
Облаци Overcast 7000ft
Налягане 1022
Промяна -
Сурови KILG 260451Z AUTO 33011KT 10SM OVC070 M02/M11 A3020 RMK AO2 SLP226 T10171111 400831017 $

VFR

-1.1°C / °C

[Още]
Вятър 310º 10kt
Видимост >10km
Времето -
Облаци Overcast 7000ft
Налягане 1022
Промяна -
Сурови KILG 260351Z AUTO 31010KT 10SM OVC070 M01/M10 A3020 RMK AO2 SLP226 T10111100 $

VFR

-0.6°C / °C

[Още]
Вятър 320º 12kt
Видимост >10km
Времето -
Облаци Overcast 7000ft
Налягане 1022
Промяна -
Сурови KILG 260251Z AUTO 32012KT 10SM OVC070 M01/M10 A3018 RMK AO2 SLP221 T10061100 51018 $

VFR

-1.7°C / -9.4°C

[Още]
Вятър 320º 7kt
Видимост >10km
Времето -
Облаци Broken Clouds 6500ft
Налягане 1021
Промяна -
Сурови KILG 260151Z AUTO 32007KT 10SM BKN065 M02/M09 A3017 RMK AO2 SLP216 T10171094 $

VFR

-1.1°C / -9.4°C

[Още]
Вятър 310º 8kt
Видимост >10km
Времето -
Облаци Clear
Налягане 1021
Промяна -
Сурови KILG 260051Z 31008KT 10SM CLR M01/M09 A3015 RMK AO2 SLP210 T10111094 $

VFR

0°C / -8.3°C

[Още]
Вятър 320º 8kt
Видимост >10km
Времето -
Облаци Scattered Clouds 6000ft
Налягане 1020
Промяна -
Сурови KILG 252351Z 32008KT 10SM SCT060 00/M08 A3013 RMK AO2 SLP203 T00001083 10083 20000 53034 $

VFR

1.7°C / -7.2°C

[Още]
Вятър 320º 13kt
Видимост >10km
Времето -
Облаци Clear
Налягане 1018
Промяна -
Сурови KILG 252251Z 32013KT 10SM CLR 02/M07 A3009 RMK AO2 SLP189 T00171072 $

VFR

3.3°C / -6.1°C

[Още]
Вятър 320º 12kt
Видимост >10km
Времето -
Облаци Clear
Налягане 1017
Промяна -
Сурови KILG 252151Z 32012KT 10SM CLR 03/M06 A3006 RMK AO2 SLP178 T00331061

VFR

5°C / -5°C

[Още]
Вятър 300º 13kt Gust 22kt
Видимост >10km
Времето -
Облаци Broken Clouds 5500ft
Налягане 1016
Промяна -
Сурови KILG 252051Z 30013G22KT 10SM BKN055 05/M05 A3003 RMK AO2 SLP169 T00501050 53016 $

VFR

6.1°C / -3.3°C

[Още]
Вятър 310º 15kt
Видимост >10km
Времето -
Облаци Scattered Clouds 6000ft
Налягане 1015
Промяна -
Сурови KILG 251951Z 31015KT 10SM SCT060 06/M03 A3000 RMK AO2 SLP159 T00611033 $

7.8°C / -1.7°C

[Още]
Вятър 330º 11kt
Видимост
Времето -
Облаци Scattered Clouds 6000ft
Налягане 1015
Промяна -
Сурови KILG 251851Z 33011KT SCT060 08/M02 A2998 RMK AO2 SLP150 T00781017 $

VFR

6.1°C / -1.7°C

[Още]
Вятър 330º 9kt
Видимост >10km
Времето -
Облаци Overcast 5000ft
Налягане 1015
Промяна -
Сурови KILG 251751Z 33009KT 10SM OVC050 06/M02 A2998 RMK AO2 SLP152 T00611017 10061 21006 50002 $

VFR

5.6°C / -1.7°C

[Още]
Вятър 350º 7kt
Видимост >10km
Времето -
Облаци Few Clouds 5000ft
Broken Clouds 6500ft
Overcast 8500ft
Налягане 1015
Промяна -
Сурови KILG 251651Z AUTO 35007KT 10SM FEW050 BKN065 OVC085 06/M02 A2999 RMK AO2 SLP154 T00561017 $

VFR

3.9°C / -1.7°C

[Още]
Вятър 350º 3kt
Видимост >10km
Времето -
Облаци Overcast 6000ft
Налягане 1015
Промяна -
Сурови KILG 251551Z AUTO 35003KT 10SM OVC060 04/M02 A2999 RMK AO2 SLP156 T00391017 $

VFR

2.8°C / -1.7°C

[Още]
Вятър 320º 4kt
Видимост >10km
Времето -
Облаци Overcast 6000ft
Налягане 1015
Промяна -
Сурови KILG 251451Z AUTO 32004KT 9SM OVC060 03/M02 A2997 RMK AO2 SLP151 T00281017 51033

VFR

1.7°C / -1.7°C

[Още]
Вятър 330º 3kt
Видимост >10km
Времето -
Облаци Broken Clouds 6000ft
Overcast 7500ft
Налягане 1014
Промяна -
Сурови KILG 251351Z AUTO 33003KT 7SM BKN060 OVC075 02/M02 A2995 RMK AO2 SLP144 T00171017

VFR

0.6°C / -2.2°C

[Още]
Вятър variable 0kt
Видимост >10km
Времето -
Облаци Few Clouds 10000ft
Налягане 1012
Промяна -
Сурови KILG 251251Z AUTO 00000KT 7SM FEW100 01/M02 A2990 RMK AO2 SLP126 T00061022 $

VFR

-0.6°C / -2.8°C

[Още]
Вятър variable 0kt
Видимост >10km
Времето -
Облаци Scattered Clouds 5500ft
Налягане 1011
Промяна -
Сурови KILG 251151Z AUTO 00000KT 8SM SCT055 M01/M03 A2988 RMK AO2 SLP118 T10061028 10017 21006 53014 $

VFR

0.6°C / -2.2°C

[Още]
Вятър 190º 3kt
Видимост 9700m
Времето Haze
Облаци Vertical Visibility of 0ft.
Налягане 1010
Промяна -
Сурови KILG 251051Z AUTO 19003KT 6SM HZ CLR 01/M02 A2985 RMK AO2 SLP108 T00061022 $

VFR

0.6°C / -2.2°C

[Още]
Вятър variable 0kt
Видимост >10km
Времето -
Облаци Few Clouds 5500ft
Scattered Clouds 8000ft
Налягане 1010
Промяна -
Сурови KILG 250951Z AUTO 00000KT 9SM FEW055 SCT080 01/M02 A2984 RMK AO2 SLP105 T00061022 $

TAF за Wilmington Manor (KILG)

From till


From till Wind 330º 8kt. Visibility 10km or more. Broken Clouds 7000ft.
From till Wind 320º 10kt. Gust 18kt. Visibility 10km or more. Scattered Clouds 5000ft.
From till Wind 330º 6kt. Visibility 10km or more. Sky Clear.

Сурови: KILG 260520Z 2606/2706 33008KT P6SM BKN070 FM261600 32010G18KT P6SM SCT050 FM262200 33006KT P6SM SKC

Радар и валежи в момента за Wilmington Manor

Ситен дъжд
Лек
Умерен
Тежък
Много тежък
Аве

Маркерът за локация обозначава Wilmington Manor. Анимацията показва Радара за валежи за последния час, както и прогноза за 1h. Дъждът или лекият сняг може да са невидими за радара. Интензивността на валежите е обозначена с цветни кодове, вариращи от светлосиньо до оранжево.

Актуални сателитни изображения за Wilmington Manor, САЩ

Маркерът за локация е поставен върху Wilmington Manor. [Още]

Сателитното изображение в реално време съчетава видимата светлина през деня с инфрачервеното лъчение през нощта. През нощта изображението не е тъмно, тъй като инфрачервеното лъчение може да открива температурни разлики. За съжаление ниските облаци и мъглата са трудни за разграничаване от температурите на земята и затова могат да бъдат почти невидими през нощта. Сателитните изображения на Meteosat за Европа се актуализират в реално време на всеки 5 минути. Изображенията GOES-16/GOES-17 (Северна и Южна Америка) и Химавари (Азия) се актуализират на всеки 10 минути.